Van Cott, New York
Current Conditions -  °F | °C
As of 12:51 AM on Tuesday 21 Oct 2014 (Local Time) from KLGA Reporting Station
Overcast Overcast  
Wind Chill: 57°   Ceiling: 20000
Heat Index: 57°   Visibility: 10mi
Dew Point: 44°   Wind: 5mph
Humidity: 62%   Direction: 190°S
Pressure: 29.96"   Gusts: NA
Location:  40.8778°N, 73.8721°W
Report Text: KLGA 210451Z 19004KT 10SM OVC200 14/07 A2996 RMK AO2 SLP145 T01390067 401610067
Loading
Personal Weather Stations






























Interactive Weather Map
Tropical Storm Tracking
New forecast layout! Learn more

10-Day Weather Forecast

Advertisements
Track Severe Weather on mobile